sensor_id;sensor_type;location;lat;lon;timestamp;P1;durP1;ratioP1;P2;durP2;ratioP2
59336;SDS011;45115;52.002;4.686;2022-07-06T00:01:44;3.38;;;2.67;;
59336;SDS011;45115;52.002;4.686;2022-07-06T00:04:11;5.10;;;2.60;;
59336;SDS011;45115;52.002;4.686;2022-07-06T00:06:37;3.40;;;2.28;;
59336;SDS011;45115;52.002;4.686;2022-07-06T00:09:04;5.25;;;2.10;;
59336;SDS011;45115;52.002;4.686;2022-07-06T00:11:31;5.13;;;1.83;;
59336;SDS011;45115;52.002;4.686;2022-07-06T00:13:58;5.07;;;2.35;;
59336;SDS011;45115;52.002;4.686;2022-07-06T00:16:25;2.75;;;2.10;;
59336;SDS011;45115;52.002;4.686;2022-07-06T00:18:53;3.78;;;2.40;;
59336;SDS011;45115;52.002;4.686;2022-07-06T00:21:20;4.45;;;1.88;;
59336;SDS011;45115;52.002;4.686;2022-07-06T00:23:47;5.45;;;2.25;;
59336;SDS011;45115;52.002;4.686;2022-07-06T00:26:13;4.20;;;2.15;;
59336;SDS011;45115;52.002;4.686;2022-07-06T00:28:40;2.78;;;2.15;;
59336;SDS011;45115;52.002;4.686;2022-07-06T00:31:07;5.05;;;2.28;;
59336;SDS011;45115;52.002;4.686;2022-07-06T00:33:33;6.43;;;2.53;;
59336;SDS011;45115;52.002;4.686;2022-07-06T00:36:02;3.83;;;2.00;;
59336;SDS011;45115;52.002;4.686;2022-07-06T00:38:29;4.40;;;2.10;;
59336;SDS011;45115;52.002;4.686;2022-07-06T00:40:55;4.88;;;2.20;;
59336;SDS011;45115;52.002;4.686;2022-07-06T00:43:22;2.42;;;2.00;;
59336;SDS011;45115;52.002;4.686;2022-07-06T00:45:48;3.53;;;2.17;;
59336;SDS011;45115;52.002;4.686;2022-07-06T00:48:15;2.40;;;1.92;;
59336;SDS011;45115;52.002;4.686;2022-07-06T00:50:41;5.43;;;2.50;;
59336;SDS011;45115;52.002;4.686;2022-07-06T00:53:10;3.70;;;2.20;;
59336;SDS011;45115;52.002;4.686;2022-07-06T00:55:37;3.85;;;1.90;;
59336;SDS011;45115;52.002;4.686;2022-07-06T00:58:05;3.55;;;2.10;;
59336;SDS011;45115;52.002;4.686;2022-07-06T01:00:33;5.32;;;2.30;;
59336;SDS011;45115;52.002;4.686;2022-07-06T01:03:00;3.35;;;2.28;;
59336;SDS011;45115;52.002;4.686;2022-07-06T01:05:27;4.07;;;2.08;;
59336;SDS011;45115;52.002;4.686;2022-07-06T01:07:54;4.45;;;1.90;;
59336;SDS011;45115;52.002;4.686;2022-07-06T01:10:23;7.35;;;2.70;;
59336;SDS011;45115;52.002;4.686;2022-07-06T01:12:50;4.90;;;2.45;;
59336;SDS011;45115;52.002;4.686;2022-07-06T01:15:17;3.92;;;2.13;;
59336;SDS011;45115;52.002;4.686;2022-07-06T01:17:45;3.60;;;2.13;;
59336;SDS011;45115;52.002;4.686;2022-07-06T01:20:14;6.38;;;2.25;;
59336;SDS011;45115;52.002;4.686;2022-07-06T01:22:42;3.47;;;2.10;;
59336;SDS011;45115;52.002;4.686;2022-07-06T01:25:09;4.60;;;2.00;;
59336;SDS011;45115;52.002;4.686;2022-07-06T01:27:37;5.40;;;2.45;;
59336;SDS011;45115;52.002;4.686;2022-07-06T01:30:05;4.03;;;2.53;;
59336;SDS011;45115;52.002;4.686;2022-07-06T01:32:33;5.88;;;2.83;;
59336;SDS011;45115;52.002;4.686;2022-07-06T01:35:00;4.57;;;2.42;;
59336;SDS011;45115;52.002;4.686;2022-07-06T01:37:30;4.50;;;2.25;;
59336;SDS011;45115;52.002;4.686;2022-07-06T01:39:57;4.07;;;2.65;;
59336;SDS011;45115;52.002;4.686;2022-07-06T01:42:25;4.25;;;2.55;;
59336;SDS011;45115;52.002;4.686;2022-07-06T01:44:52;6.47;;;2.90;;
59336;SDS011;45115;52.002;4.686;2022-07-06T01:47:19;5.93;;;2.80;;
59336;SDS011;45115;52.002;4.686;2022-07-06T01:49:48;4.70;;;2.42;;
59336;SDS011;45115;52.002;4.686;2022-07-06T01:52:15;4.90;;;2.58;;
59336;SDS011;45115;52.002;4.686;2022-07-06T01:54:43;4.95;;;2.70;;
59336;SDS011;45115;52.002;4.686;2022-07-06T01:57:10;2.97;;;2.20;;
59336;SDS011;45115;52.002;4.686;2022-07-06T01:59:38;4.30;;;2.60;;
59336;SDS011;45115;52.002;4.686;2022-07-06T02:02:04;5.30;;;2.58;;
59336;SDS011;45115;52.002;4.686;2022-07-06T02:07:42;3.58;;;2.42;;
59336;SDS011;45115;52.002;4.686;2022-07-06T02:10:12;5.07;;;2.63;;
59336;SDS011;45115;52.002;4.686;2022-07-06T02:12:38;7.78;;;3.00;;
59336;SDS011;45115;52.002;4.686;2022-07-06T02:15:05;4.43;;;2.55;;
59336;SDS011;45115;52.002;4.686;2022-07-06T02:17:33;3.58;;;2.58;;
59336;SDS011;45115;52.002;4.686;2022-07-06T02:20:00;5.95;;;2.53;;
59336;SDS011;45115;52.002;4.686;2022-07-06T02:22:28;4.07;;;2.58;;
59336;SDS011;45115;52.002;4.686;2022-07-06T02:24:54;6.85;;;2.38;;
59336;SDS011;45115;52.002;4.686;2022-07-06T02:27:23;3.72;;;2.60;;
59336;SDS011;45115;52.002;4.686;2022-07-06T02:29:50;5.32;;;2.70;;
59336;SDS011;45115;52.002;4.686;2022-07-06T02:32:17;4.00;;;2.42;;
59336;SDS011;45115;52.002;4.686;2022-07-06T02:34:43;4.50;;;2.40;;
59336;SDS011;45115;52.002;4.686;2022-07-06T02:37:10;6.20;;;2.80;;
59336;SDS011;45115;52.002;4.686;2022-07-06T02:39:36;5.10;;;2.75;;
59336;SDS011;45115;52.002;4.686;2022-07-06T02:42:03;5.22;;;2.25;;
59336;SDS011;45115;52.002;4.686;2022-07-06T02:44:32;3.97;;;2.42;;
59336;SDS011;45115;52.002;4.686;2022-07-06T02:46:58;2.75;;;2.13;;
59336;SDS011;45115;52.002;4.686;2022-07-06T02:49:25;4.50;;;2.35;;
59336;SDS011;45115;52.002;4.686;2022-07-06T02:51:52;4.07;;;2.30;;
59336;SDS011;45115;52.002;4.686;2022-07-06T02:54:19;4.47;;;2.25;;
59336;SDS011;45115;52.002;4.686;2022-07-06T02:56:45;4.65;;;2.30;;
59336;SDS011;45115;52.002;4.686;2022-07-06T02:59:17;3.47;;;2.20;;
59336;SDS011;45115;52.002;4.686;2022-07-06T03:01:45;5.82;;;2.58;;
59336;SDS011;45115;52.002;4.686;2022-07-06T03:04:12;3.60;;;2.13;;
59336;SDS011;45115;52.002;4.686;2022-07-06T03:06:39;4.45;;;2.55;;
59336;SDS011;45115;52.002;4.686;2022-07-06T03:09:06;5.03;;;2.45;;
59336;SDS011;45115;52.002;4.686;2022-07-06T03:11:33;5.20;;;2.67;;
59336;SDS011;45115;52.002;4.686;2022-07-06T03:14:01;3.88;;;2.53;;
59336;SDS011;45115;52.002;4.686;2022-07-06T03:16:29;5.95;;;2.45;;
59336;SDS011;45115;52.002;4.686;2022-07-06T03:18:58;5.93;;;2.45;;
59336;SDS011;45115;52.002;4.686;2022-07-06T03:21:25;4.32;;;2.28;;
59336;SDS011;45115;52.002;4.686;2022-07-06T03:23:52;5.13;;;2.60;;
59336;SDS011;45115;52.002;4.686;2022-07-06T03:26:18;5.47;;;2.53;;
59336;SDS011;45115;52.002;4.686;2022-07-06T03:28:46;3.47;;;2.20;;
59336;SDS011;45115;52.002;4.686;2022-07-06T03:31:13;3.17;;;2.30;;
59336;SDS011;45115;52.002;4.686;2022-07-06T03:33:39;2.30;;;2.10;;
59336;SDS011;45115;52.002;4.686;2022-07-06T03:36:08;5.40;;;2.10;;
59336;SDS011;45115;52.002;4.686;2022-07-06T03:38:35;3.38;;;2.30;;
59336;SDS011;45115;52.002;4.686;2022-07-06T03:41:02;2.95;;;2.13;;
59336;SDS011;45115;52.002;4.686;2022-07-06T03:43:29;3.65;;;2.08;;
59336;SDS011;45115;52.002;4.686;2022-07-06T03:45:56;3.40;;;2.00;;
59336;SDS011;45115;52.002;4.686;2022-07-06T03:48:23;2.47;;;1.90;;
59336;SDS011;45115;52.002;4.686;2022-07-06T03:50:50;3.10;;;1.65;;
59336;SDS011;45115;52.002;4.686;2022-07-06T03:53:18;2.85;;;2.13;;
59336;SDS011;45115;52.002;4.686;2022-07-06T03:55:45;2.92;;;2.20;;
59336;SDS011;45115;52.002;4.686;2022-07-06T03:58:34;3.03;;;1.77;;
59336;SDS011;45115;52.002;4.686;2022-07-06T04:01:00;3.15;;;1.90;;
59336;SDS011;45115;52.002;4.686;2022-07-06T04:03:27;3.03;;;1.90;;
59336;SDS011;45115;52.002;4.686;2022-07-06T04:05:54;2.85;;;2.00;;
59336;SDS011;45115;52.002;4.686;2022-07-06T04:08:22;1.83;;;1.60;;
59336;SDS011;45115;52.002;4.686;2022-07-06T04:10:53;2.72;;;1.67;;
59336;SDS011;45115;52.002;4.686;2022-07-06T04:13:20;4.05;;;1.70;;
59336;SDS011;45115;52.002;4.686;2022-07-06T04:15:47;2.00;;;1.58;;
59336;SDS011;45115;52.002;4.686;2022-07-06T04:18:14;1.92;;;1.52;;
59336;SDS011;45115;52.002;4.686;2022-07-06T04:20:46;3.05;;;1.83;;
59336;SDS011;45115;52.002;4.686;2022-07-06T04:23:13;1.77;;;1.45;;
59336;SDS011;45115;52.002;4.686;2022-07-06T04:25:41;2.85;;;1.85;;
59336;SDS011;45115;52.002;4.686;2022-07-06T04:28:09;2.15;;;1.77;;
59336;SDS011;45115;52.002;4.686;2022-07-06T04:30:37;4.28;;;1.83;;
59336;SDS011;45115;52.002;4.686;2022-07-06T04:33:07;3.33;;;1.80;;
59336;SDS011;45115;52.002;4.686;2022-07-06T04:35:34;4.78;;;2.03;;
59336;SDS011;45115;52.002;4.686;2022-07-06T04:38:01;3.65;;;1.75;;
59336;SDS011;45115;52.002;4.686;2022-07-06T04:40:28;3.15;;;1.50;;
59336;SDS011;45115;52.002;4.686;2022-07-06T04:42:59;1.73;;;1.63;;
59336;SDS011;45115;52.002;4.686;2022-07-06T04:45:28;2.55;;;1.70;;
59336;SDS011;45115;52.002;4.686;2022-07-06T04:47:55;3.47;;;1.48;;
59336;SDS011;45115;52.002;4.686;2022-07-06T04:50:22;3.65;;;1.73;;
59336;SDS011;45115;52.002;4.686;2022-07-06T04:52:50;2.58;;;1.90;;
59336;SDS011;45115;52.002;4.686;2022-07-06T04:55:17;1.92;;;1.73;;
59336;SDS011;45115;52.002;4.686;2022-07-06T04:57:46;2.72;;;1.67;;
59336;SDS011;45115;52.002;4.686;2022-07-06T05:00:15;2.38;;;1.55;;
59336;SDS011;45115;52.002;4.686;2022-07-06T05:02:42;4.55;;;2.13;;
59336;SDS011;45115;52.002;4.686;2022-07-06T05:05:09;3.00;;;2.13;;
59336;SDS011;45115;52.002;4.686;2022-07-06T05:07:37;3.97;;;2.00;;
59336;SDS011;45115;52.002;4.686;2022-07-06T05:10:05;4.60;;;2.08;;
59336;SDS011;45115;52.002;4.686;2022-07-06T05:12:33;3.17;;;1.85;;
59336;SDS011;45115;52.002;4.686;2022-07-06T05:15:01;4.43;;;1.95;;
59336;SDS011;45115;52.002;4.686;2022-07-06T05:17:30;4.70;;;1.73;;
59336;SDS011;45115;52.002;4.686;2022-07-06T05:19:59;2.85;;;1.73;;
59336;SDS011;45115;52.002;4.686;2022-07-06T05:22:29;4.65;;;1.80;;
59336;SDS011;45115;52.002;4.686;2022-07-06T05:24:56;4.50;;;1.98;;
59336;SDS011;45115;52.002;4.686;2022-07-06T05:27:23;4.95;;;2.17;;
59336;SDS011;45115;52.002;4.686;2022-07-06T05:29:49;4.03;;;2.03;;
59336;SDS011;45115;52.002;4.686;2022-07-06T05:32:16;3.40;;;1.80;;
59336;SDS011;45115;52.002;4.686;2022-07-06T05:34:44;1.95;;;1.50;;
59336;SDS011;45115;52.002;4.686;2022-07-06T05:37:11;2.42;;;1.40;;
59336;SDS011;45115;52.002;4.686;2022-07-06T05:39:38;2.60;;;1.75;;
59336;SDS011;45115;52.002;4.686;2022-07-06T05:44:36;2.47;;;1.42;;
59336;SDS011;45115;52.002;4.686;2022-07-06T05:47:03;6.60;;;1.75;;
59336;SDS011;45115;52.002;4.686;2022-07-06T05:49:49;3.25;;;1.27;;
59336;SDS011;45115;52.002;4.686;2022-07-06T05:52:33;1.65;;;1.20;;
59336;SDS011;45115;52.002;4.686;2022-07-06T05:55:00;1.80;;;1.40;;
59336;SDS011;45115;52.002;4.686;2022-07-06T05:57:27;1.92;;;1.60;;
59336;SDS011;45115;52.002;4.686;2022-07-06T05:59:54;6.93;;;1.73;;
59336;SDS011;45115;52.002;4.686;2022-07-06T06:02:20;3.60;;;1.35;;
59336;SDS011;45115;52.002;4.686;2022-07-06T06:04:49;3.15;;;1.48;;
59336;SDS011;45115;52.002;4.686;2022-07-06T06:07:15;3.03;;;1.25;;
59336;SDS011;45115;52.002;4.686;2022-07-06T06:09:42;3.17;;;1.30;;
59336;SDS011;45115;52.002;4.686;2022-07-06T06:12:09;2.40;;;1.30;;
59336;SDS011;45115;52.002;4.686;2022-07-06T06:14:35;4.20;;;1.17;;
59336;SDS011;45115;52.002;4.686;2022-07-06T06:17:02;2.63;;;1.00;;
59336;SDS011;45115;52.002;4.686;2022-07-06T06:19:34;3.50;;;1.30;;
59336;SDS011;45115;52.002;4.686;2022-07-06T06:22:03;1.95;;;0.90;;
59336;SDS011;45115;52.002;4.686;2022-07-06T06:24:30;0.90;;;0.82;;
59336;SDS011;45115;52.002;4.686;2022-07-06T06:26:57;3.63;;;1.10;;
59336;SDS011;45115;52.002;4.686;2022-07-06T06:29:24;1.60;;;0.77;;
59336;SDS011;45115;52.002;4.686;2022-07-06T06:31:50;1.23;;;1.00;;
59336;SDS011;45115;52.002;4.686;2022-07-06T06:34:17;3.38;;;1.00;;
59336;SDS011;45115;52.002;4.686;2022-07-06T06:36:44;3.58;;;1.20;;
59336;SDS011;45115;52.002;4.686;2022-07-06T06:39:11;2.33;;;1.13;;
59336;SDS011;45115;52.002;4.686;2022-07-06T06:41:38;2.40;;;1.27;;
59336;SDS011;45115;52.002;4.686;2022-07-06T06:44:04;1.13;;;0.80;;
59336;SDS011;45115;52.002;4.686;2022-07-06T06:46:37;2.17;;;0.80;;
59336;SDS011;45115;52.002;4.686;2022-07-06T06:49:04;2.45;;;1.00;;
59336;SDS011;45115;52.002;4.686;2022-07-06T06:51:31;1.45;;;0.68;;
59336;SDS011;45115;52.002;4.686;2022-07-06T06:53:58;2.40;;;0.70;;
59336;SDS011;45115;52.002;4.686;2022-07-06T06:56:26;3.70;;;1.10;;
59336;SDS011;45115;52.002;4.686;2022-07-06T06:58:53;4.35;;;1.10;;
59336;SDS011;45115;52.002;4.686;2022-07-06T07:01:19;1.98;;;1.00;;
59336;SDS011;45115;52.002;4.686;2022-07-06T07:03:46;1.52;;;0.90;;
59336;SDS011;45115;52.002;4.686;2022-07-06T07:06:12;1.55;;;1.02;;
59336;SDS011;45115;52.002;4.686;2022-07-06T07:08:39;2.75;;;0.82;;
59336;SDS011;45115;52.002;4.686;2022-07-06T07:11:06;1.88;;;0.90;;
59336;SDS011;45115;52.002;4.686;2022-07-06T07:13:34;2.42;;;1.00;;
59336;SDS011;45115;52.002;4.686;2022-07-06T07:16:00;1.77;;;0.80;;
59336;SDS011;45115;52.002;4.686;2022-07-06T07:18:27;1.08;;;0.98;;
59336;SDS011;45115;52.002;4.686;2022-07-06T07:20:53;0.95;;;0.82;;
59336;SDS011;45115;52.002;4.686;2022-07-06T07:23:20;1.90;;;1.13;;
59336;SDS011;45115;52.002;4.686;2022-07-06T07:25:47;1.95;;;1.00;;
59336;SDS011;45115;52.002;4.686;2022-07-06T07:28:13;2.47;;;0.90;;
59336;SDS011;45115;52.002;4.686;2022-07-06T07:30:41;1.95;;;0.98;;
59336;SDS011;45115;52.002;4.686;2022-07-06T07:33:08;1.45;;;0.85;;
59336;SDS011;45115;52.002;4.686;2022-07-06T07:35:34;2.33;;;1.00;;
59336;SDS011;45115;52.002;4.686;2022-07-06T07:38:01;2.55;;;0.73;;
59336;SDS011;45115;52.002;4.686;2022-07-06T07:40:27;2.25;;;1.05;;
59336;SDS011;45115;52.002;4.686;2022-07-06T07:42:54;1.48;;;0.75;;
59336;SDS011;45115;52.002;4.686;2022-07-06T07:45:21;1.38;;;0.82;;
59336;SDS011;45115;52.002;4.686;2022-07-06T07:47:49;1.40;;;0.85;;
59336;SDS011;45115;52.002;4.686;2022-07-06T07:50:16;1.77;;;0.70;;
59336;SDS011;45115;52.002;4.686;2022-07-06T07:52:43;0.68;;;0.68;;
59336;SDS011;45115;52.002;4.686;2022-07-06T07:55:10;0.57;;;0.57;;
59336;SDS011;45115;52.002;4.686;2022-07-06T07:57:37;1.48;;;1.00;;
59336;SDS011;45115;52.002;4.686;2022-07-06T08:00:04;0.85;;;0.70;;
59336;SDS011;45115;52.002;4.686;2022-07-06T08:02:36;1.20;;;1.10;;
59336;SDS011;45115;52.002;4.686;2022-07-06T08:05:07;1.10;;;1.00;;
59336;SDS011;45115;52.002;4.686;2022-07-06T08:07:38;2.05;;;1.05;;
59336;SDS011;45115;52.002;4.686;2022-07-06T08:10:05;2.30;;;0.80;;
59336;SDS011;45115;52.002;4.686;2022-07-06T08:12:32;0.60;;;0.60;;
59336;SDS011;45115;52.002;4.686;2022-07-06T08:14:59;2.95;;;0.68;;
59336;SDS011;45115;52.002;4.686;2022-07-06T08:17:25;1.58;;;0.60;;
59336;SDS011;45115;52.002;4.686;2022-07-06T08:19:52;2.95;;;1.27;;
59336;SDS011;45115;52.002;4.686;2022-07-06T08:22:23;0.90;;;0.73;;
59336;SDS011;45115;52.002;4.686;2022-07-06T08:24:53;1.13;;;0.75;;
59336;SDS011;45115;52.002;4.686;2022-07-06T08:27:20;0.93;;;0.82;;
59336;SDS011;45115;52.002;4.686;2022-07-06T08:29:47;1.15;;;0.70;;
59336;SDS011;45115;52.002;4.686;2022-07-06T08:32:14;1.27;;;0.65;;
59336;SDS011;45115;52.002;4.686;2022-07-06T08:34:41;3.05;;;1.05;;
59336;SDS011;45115;52.002;4.686;2022-07-06T08:37:09;0.60;;;0.45;;
59336;SDS011;45115;52.002;4.686;2022-07-06T08:39:38;2.80;;;0.90;;
59336;SDS011;45115;52.002;4.686;2022-07-06T08:42:05;1.73;;;1.00;;
59336;SDS011;45115;52.002;4.686;2022-07-06T08:44:36;2.63;;;0.80;;
59336;SDS011;45115;52.002;4.686;2022-07-06T08:47:04;2.92;;;1.05;;
59336;SDS011;45115;52.002;4.686;2022-07-06T08:49:35;1.67;;;0.70;;
59336;SDS011;45115;52.002;4.686;2022-07-06T08:52:03;0.88;;;0.70;;
59336;SDS011;45115;52.002;4.686;2022-07-06T08:54:31;2.03;;;0.90;;
59336;SDS011;45115;52.002;4.686;2022-07-06T08:56:59;1.83;;;0.65;;
59336;SDS011;45115;52.002;4.686;2022-07-06T08:59:29;1.33;;;0.70;;
59336;SDS011;45115;52.002;4.686;2022-07-06T09:01:56;0.65;;;0.60;;
59336;SDS011;45115;52.002;4.686;2022-07-06T09:04:25;1.35;;;0.95;;
59336;SDS011;45115;52.002;4.686;2022-07-06T09:06:53;1.45;;;0.65;;
59336;SDS011;45115;52.002;4.686;2022-07-06T09:09:21;0.98;;;0.73;;
59336;SDS011;45115;52.002;4.686;2022-07-06T09:11:50;0.60;;;0.60;;
59336;SDS011;45115;52.002;4.686;2022-07-06T09:14:18;3.50;;;0.80;;
59336;SDS011;45115;52.002;4.686;2022-07-06T09:16:45;0.80;;;0.80;;
59336;SDS011;45115;52.002;4.686;2022-07-06T09:19:13;0.88;;;0.70;;
59336;SDS011;45115;52.002;4.686;2022-07-06T09:21:40;3.70;;;0.93;;
59336;SDS011;45115;52.002;4.686;2022-07-06T09:24:08;0.98;;;0.75;;
59336;SDS011;45115;52.002;4.686;2022-07-06T09:26:36;1.20;;;0.65;;
59336;SDS011;45115;52.002;4.686;2022-07-06T09:29:04;2.55;;;1.45;;
59336;SDS011;45115;52.002;4.686;2022-07-06T09:31:32;0.80;;;0.80;;
59336;SDS011;45115;52.002;4.686;2022-07-06T09:34:00;2.72;;;0.82;;
59336;SDS011;45115;52.002;4.686;2022-07-06T09:36:40;1.77;;;0.85;;
59336;SDS011;45115;52.002;4.686;2022-07-06T09:39:16;3.03;;;0.80;;
59336;SDS011;45115;52.002;4.686;2022-07-06T09:41:43;2.03;;;0.70;;
59336;SDS011;45115;52.002;4.686;2022-07-06T09:44:10;1.55;;;0.82;;
59336;SDS011;45115;52.002;4.686;2022-07-06T09:46:38;3.20;;;0.57;;
59336;SDS011;45115;52.002;4.686;2022-07-06T09:49:06;3.33;;;0.93;;
59336;SDS011;45115;52.002;4.686;2022-07-06T09:51:35;0.55;;;0.52;;
59336;SDS011;45115;52.002;4.686;2022-07-06T09:54:03;1.13;;;1.00;;
59336;SDS011;45115;52.002;4.686;2022-07-06T09:56:36;1.30;;;0.93;;
59336;SDS011;45115;52.002;4.686;2022-07-06T09:59:10;1.70;;;0.95;;
59336;SDS011;45115;52.002;4.686;2022-07-06T10:01:38;3.28;;;0.95;;
59336;SDS011;45115;52.002;4.686;2022-07-06T10:04:06;2.33;;;0.98;;
59336;SDS011;45115;52.002;4.686;2022-07-06T10:06:32;3.10;;;1.20;;
59336;SDS011;45115;52.002;4.686;2022-07-06T10:08:59;2.42;;;1.00;;
59336;SDS011;45115;52.002;4.686;2022-07-06T10:11:27;1.70;;;0.98;;
59336;SDS011;45115;52.002;4.686;2022-07-06T10:13:55;2.35;;;0.73;;
59336;SDS011;45115;52.002;4.686;2022-07-06T10:16:25;1.15;;;0.80;;
59336;SDS011;45115;52.002;4.686;2022-07-06T10:18:53;2.40;;;0.90;;
59336;SDS011;45115;52.002;4.686;2022-07-06T10:21:21;1.65;;;1.13;;
59336;SDS011;45115;52.002;4.686;2022-07-06T10:23:48;1.67;;;0.82;;
59336;SDS011;45115;52.002;4.686;2022-07-06T10:26:16;1.85;;;1.20;;
59336;SDS011;45115;52.002;4.686;2022-07-06T10:28:44;1.40;;;1.05;;
59336;SDS011;45115;52.002;4.686;2022-07-06T10:31:12;2.20;;;1.30;;
59336;SDS011;45115;52.002;4.686;2022-07-06T10:33:40;3.15;;;0.90;;
59336;SDS011;45115;52.002;4.686;2022-07-06T10:36:09;1.90;;;0.93;;
59336;SDS011;45115;52.002;4.686;2022-07-06T10:38:37;3.42;;;1.13;;
59336;SDS011;45115;52.002;4.686;2022-07-06T10:41:04;4.15;;;1.15;;
59336;SDS011;45115;52.002;4.686;2022-07-06T10:43:32;4.75;;;1.10;;
59336;SDS011;45115;52.002;4.686;2022-07-06T10:46:05;1.35;;;1.02;;
59336;SDS011;45115;52.002;4.686;2022-07-06T10:48:35;2.05;;;0.95;;
59336;SDS011;45115;52.002;4.686;2022-07-06T10:51:02;1.98;;;1.08;;
59336;SDS011;45115;52.002;4.686;2022-07-06T10:53:32;1.92;;;1.27;;
59336;SDS011;45115;52.002;4.686;2022-07-06T10:56:00;1.30;;;0.98;;
59336;SDS011;45115;52.002;4.686;2022-07-06T10:58:34;3.95;;;1.40;;
59336;SDS011;45115;52.002;4.686;2022-07-06T11:01:05;1.70;;;1.27;;
59336;SDS011;45115;52.002;4.686;2022-07-06T11:03:34;2.38;;;1.35;;
59336;SDS011;45115;52.002;4.686;2022-07-06T11:06:06;2.15;;;1.25;;
59336;SDS011;45115;52.002;4.686;2022-07-06T11:08:49;3.20;;;1.15;;
59336;SDS011;45115;52.002;4.686;2022-07-06T11:11:18;2.38;;;1.20;;
59336;SDS011;45115;52.002;4.686;2022-07-06T11:13:50;3.53;;;1.17;;
59336;SDS011;45115;52.002;4.686;2022-07-06T11:16:19;2.47;;;1.20;;
59336;SDS011;45115;52.002;4.686;2022-07-06T11:18:47;2.45;;;1.08;;
59336;SDS011;45115;52.002;4.686;2022-07-06T11:21:15;2.60;;;1.35;;
59336;SDS011;45115;52.002;4.686;2022-07-06T11:23:47;3.58;;;1.40;;
59336;SDS011;45115;52.002;4.686;2022-07-06T11:26:16;5.07;;;1.58;;
59336;SDS011;45115;52.002;4.686;2022-07-06T11:28:45;2.88;;;1.55;;
59336;SDS011;45115;52.002;4.686;2022-07-06T11:31:14;3.10;;;1.23;;
59336;SDS011;45115;52.002;4.686;2022-07-06T11:33:41;1.60;;;1.05;;
59336;SDS011;45115;52.002;4.686;2022-07-06T11:36:13;3.50;;;1.63;;
59336;SDS011;45115;52.002;4.686;2022-07-06T11:38:41;3.40;;;1.42;;
59336;SDS011;45115;52.002;4.686;2022-07-06T11:41:10;2.42;;;1.48;;
59336;SDS011;45115;52.002;4.686;2022-07-06T11:43:39;2.00;;;1.08;;
59336;SDS011;45115;52.002;4.686;2022-07-06T11:46:17;2.45;;;1.33;;
59336;SDS011;45115;52.002;4.686;2022-07-06T11:48:48;3.53;;;1.27;;
59336;SDS011;45115;52.002;4.686;2022-07-06T11:51:16;3.35;;;1.40;;
59336;SDS011;45115;52.002;4.686;2022-07-06T11:53:43;4.55;;;1.67;;
59336;SDS011;45115;52.002;4.686;2022-07-06T11:56:13;2.25;;;1.10;;
59336;SDS011;45115;52.002;4.686;2022-07-06T11:58:41;3.85;;;1.42;;
59336;SDS011;45115;52.002;4.686;2022-07-06T12:01:11;2.63;;;1.20;;
59336;SDS011;45115;52.002;4.686;2022-07-06T12:03:39;2.85;;;1.50;;
59336;SDS011;45115;52.002;4.686;2022-07-06T12:06:07;1.75;;;1.13;;
59336;SDS011;45115;52.002;4.686;2022-07-06T12:08:43;4.70;;;1.90;;
59336;SDS011;45115;52.002;4.686;2022-07-06T12:11:17;3.75;;;1.90;;
59336;SDS011;45115;52.002;4.686;2022-07-06T12:13:46;3.90;;;1.77;;
59336;SDS011;45115;52.002;4.686;2022-07-06T12:16:13;3.35;;;1.50;;
59336;SDS011;45115;52.002;4.686;2022-07-06T12:18:41;2.05;;;1.77;;
59336;SDS011;45115;52.002;4.686;2022-07-06T12:21:09;2.70;;;1.33;;
59336;SDS011;45115;52.002;4.686;2022-07-06T12:23:41;2.05;;;1.67;;
59336;SDS011;45115;52.002;4.686;2022-07-06T12:26:09;4.15;;;1.80;;
59336;SDS011;45115;52.002;4.686;2022-07-06T12:28:37;4.35;;;1.77;;
59336;SDS011;45115;52.002;4.686;2022-07-06T12:31:04;4.70;;;1.70;;
59336;SDS011;45115;52.002;4.686;2022-07-06T12:33:31;2.58;;;1.52;;
59336;SDS011;45115;52.002;4.686;2022-07-06T12:36:07;3.03;;;1.80;;
59336;SDS011;45115;52.002;4.686;2022-07-06T12:38:35;3.10;;;1.77;;
59336;SDS011;45115;52.002;4.686;2022-07-06T12:41:02;3.45;;;1.88;;
59336;SDS011;45115;52.002;4.686;2022-07-06T12:43:35;2.42;;;1.60;;
59336;SDS011;45115;52.002;4.686;2022-07-06T12:46:22;5.60;;;1.80;;
59336;SDS011;45115;52.002;4.686;2022-07-06T12:48:52;3.65;;;1.98;;
59336;SDS011;45115;52.002;4.686;2022-07-06T12:53:46;4.28;;;1.65;;
59336;SDS011;45115;52.002;4.686;2022-07-06T12:56:13;4.65;;;1.80;;
59336;SDS011;45115;52.002;4.686;2022-07-06T12:58:55;3.35;;;1.55;;
59336;SDS011;45115;52.002;4.686;2022-07-06T13:01:22;2.80;;;1.48;;
59336;SDS011;45115;52.002;4.686;2022-07-06T13:03:53;3.53;;;1.77;;
59336;SDS011;45115;52.002;4.686;2022-07-06T13:06:26;3.45;;;1.60;;
59336;SDS011;45115;52.002;4.686;2022-07-06T13:08:55;2.53;;;1.70;;
59336;SDS011;45115;52.002;4.686;2022-07-06T13:11:22;2.53;;;1.70;;
59336;SDS011;45115;52.002;4.686;2022-07-06T13:13:48;3.92;;;1.75;;
59336;SDS011;45115;52.002;4.686;2022-07-06T13:16:16;1.92;;;1.73;;
59336;SDS011;45115;52.002;4.686;2022-07-06T13:18:43;2.20;;;2.00;;
59336;SDS011;45115;52.002;4.686;2022-07-06T13:21:10;2.28;;;1.77;;
59336;SDS011;45115;52.002;4.686;2022-07-06T13:23:37;4.43;;;2.17;;
59336;SDS011;45115;52.002;4.686;2022-07-06T13:26:04;4.50;;;2.20;;
59336;SDS011;45115;52.002;4.686;2022-07-06T13:28:30;4.85;;;2.28;;
59336;SDS011;45115;52.002;4.686;2022-07-06T13:30:57;5.90;;;2.15;;
59336;SDS011;45115;52.002;4.686;2022-07-06T13:33:25;5.32;;;1.98;;
59336;SDS011;45115;52.002;4.686;2022-07-06T13:35:52;2.72;;;1.90;;
59336;SDS011;45115;52.002;4.686;2022-07-06T13:38:19;3.05;;;1.95;;
59336;SDS011;45115;52.002;4.686;2022-07-06T13:40:46;2.53;;;2.10;;
59336;SDS011;45115;52.002;4.686;2022-07-06T13:43:12;6.07;;;2.17;;
59336;SDS011;45115;52.002;4.686;2022-07-06T13:45:39;2.35;;;2.00;;
59336;SDS011;45115;52.002;4.686;2022-07-06T13:48:05;3.67;;;2.30;;
59336;SDS011;45115;52.002;4.686;2022-07-06T13:50:34;5.07;;;2.20;;
59336;SDS011;45115;52.002;4.686;2022-07-06T13:53:00;4.00;;;2.20;;
59336;SDS011;45115;52.002;4.686;2022-07-06T13:55:27;3.65;;;2.10;;
59336;SDS011;45115;52.002;4.686;2022-07-06T13:57:54;4.28;;;2.20;;
59336;SDS011;45115;52.002;4.686;2022-07-06T14:00:20;5.47;;;2.08;;
59336;SDS011;45115;52.002;4.686;2022-07-06T14:02:48;4.43;;;2.17;;
59336;SDS011;45115;52.002;4.686;2022-07-06T14:05:14;4.05;;;2.30;;
59336;SDS011;45115;52.002;4.686;2022-07-06T14:07:42;4.60;;;2.30;;
59336;SDS011;45115;52.002;4.686;2022-07-06T14:10:09;5.55;;;2.20;;
59336;SDS011;45115;52.002;4.686;2022-07-06T14:12:35;7.72;;;2.55;;
59336;SDS011;45115;52.002;4.686;2022-07-06T14:15:02;4.53;;;2.55;;
59336;SDS011;45115;52.002;4.686;2022-07-06T14:17:29;4.32;;;2.22;;
59336;SDS011;45115;52.002;4.686;2022-07-06T14:19:56;2.83;;;2.22;;
59336;SDS011;45115;52.002;4.686;2022-07-06T14:22:22;5.00;;;2.40;;
59336;SDS011;45115;52.002;4.686;2022-07-06T14:24:50;3.30;;;2.60;;
59336;SDS011;45115;52.002;4.686;2022-07-06T14:27:17;6.75;;;2.80;;
59336;SDS011;45115;52.002;4.686;2022-07-06T14:29:44;9.15;;;3.38;;
59336;SDS011;45115;52.002;4.686;2022-07-06T14:32:10;4.50;;;2.50;;
59336;SDS011;45115;52.002;4.686;2022-07-06T14:34:37;8.35;;;3.50;;
59336;SDS011;45115;52.002;4.686;2022-07-06T14:37:04;6.72;;;3.58;;
59336;SDS011;45115;52.002;4.686;2022-07-06T14:39:30;7.40;;;3.17;;
59336;SDS011;45115;52.002;4.686;2022-07-06T14:41:58;8.30;;;4.00;;
59336;SDS011;45115;52.002;4.686;2022-07-06T14:44:25;5.75;;;2.88;;
59336;SDS011;45115;52.002;4.686;2022-07-06T14:46:52;2.80;;;2.20;;
59336;SDS011;45115;52.002;4.686;2022-07-06T14:49:19;4.07;;;3.15;;
59336;SDS011;45115;52.002;4.686;2022-07-06T14:51:45;7.85;;;3.55;;
59336;SDS011;45115;52.002;4.686;2022-07-06T14:54:12;5.00;;;3.05;;
59336;SDS011;45115;52.002;4.686;2022-07-06T14:56:38;8.00;;;3.60;;
59336;SDS011;45115;52.002;4.686;2022-07-06T14:59:06;8.38;;;3.67;;
59336;SDS011;45115;52.002;4.686;2022-07-06T15:01:33;7.32;;;3.63;;